createdAt,value
2023-03-16T00:02:36.424Z,101200.09
2023-03-16T00:05:40.899Z,101204.00
2023-03-16T00:08:44.747Z,101215.09
2023-03-16T00:11:48.415Z,101214.69
2023-03-16T00:14:52.349Z,101217.06
2023-03-16T00:17:57.093Z,101216.78
2023-03-16T00:21:04.777Z,101219.13
2023-03-16T00:24:08.780Z,101219.50
2023-03-16T00:27:15.566Z,101208.53
2023-03-16T00:30:19.114Z,101209.34
2023-03-16T00:33:23.929Z,101207.13
2023-03-16T00:36:27.962Z,101210.84
2023-03-16T00:39:36.430Z,101207.19
2023-03-16T00:42:40.792Z,101208.47
2023-03-16T00:45:45.793Z,101203.50
2023-03-16T00:48:49.800Z,101202.66
2023-03-16T00:51:53.864Z,101202.00
2023-03-16T00:54:58.044Z,101212.25
2023-03-16T00:58:05.915Z,101210.38
2023-03-16T01:01:14.538Z,101208.03
2023-03-16T01:04:18.260Z,101210.25
2023-03-16T01:07:22.668Z,101210.50
2023-03-16T01:10:27.551Z,101200.69
2023-03-16T01:13:31.819Z,101203.84
2023-03-16T01:16:36.143Z,101204.34
2023-03-16T01:19:40.197Z,101204.16
2023-03-16T01:22:43.829Z,101194.31
2023-03-16T01:25:53.828Z,101198.00
2023-03-16T01:28:57.962Z,101191.19
2023-03-16T01:32:02.612Z,101193.34
2023-03-16T01:35:07.569Z,101192.44
2023-03-16T01:38:12.908Z,101186.72
2023-03-16T01:41:17.084Z,101187.47
2023-03-16T01:44:23.763Z,101188.34
2023-03-16T01:47:27.432Z,101188.53
2023-03-16T01:50:30.949Z,101186.53
2023-03-16T01:53:34.962Z,101180.28
2023-03-16T01:56:41.199Z,101179.56
2023-03-16T02:00:08.928Z,101179.31
2023-03-16T02:03:19.731Z,101170.47
2023-03-16T02:06:33.182Z,101162.31
2023-03-16T02:09:39.617Z,101167.78
2023-03-16T02:12:44.357Z,101160.66
2023-03-16T02:15:48.803Z,101162.41
2023-03-16T02:18:57.676Z,101159.72
2023-03-16T02:22:07.592Z,101167.38
2023-03-16T02:25:12.520Z,101158.78
2023-03-16T02:28:16.721Z,101159.59
2023-03-16T02:31:23.461Z,101165.41
2023-03-16T02:34:28.019Z,101171.09
2023-03-16T02:37:34.720Z,101171.88
2023-03-16T02:40:39.914Z,101177.06
2023-03-16T02:44:03.805Z,101170.19
2023-03-16T02:47:31.942Z,101168.09
2023-03-16T02:50:37.868Z,101164.22
2023-03-16T02:53:44.502Z,101168.63
2023-03-16T02:56:48.227Z,101165.63
2023-03-16T02:59:52.846Z,101165.56
2023-03-16T03:02:56.479Z,101170.13
2023-03-16T03:06:00.129Z,101166.97
2023-03-16T03:09:08.466Z,101167.16
2023-03-16T03:12:13.889Z,101164.34
2023-03-16T03:15:18.813Z,101166.94
2023-03-16T03:18:36.588Z,101166.50
2023-03-16T03:21:41.255Z,101168.78
2023-03-16T03:24:45.605Z,101178.31
2023-03-16T03:27:50.858Z,101176.69
2023-03-16T03:30:57.553Z,101177.25
2023-03-16T03:34:07.334Z,101171.25
2023-03-16T03:37:12.400Z,101173.06
2023-03-16T03:40:19.055Z,101166.59
2023-03-16T03:43:26.385Z,101171.44
2023-03-16T03:46:31.974Z,101165.19
2023-03-16T03:49:36.168Z,101163.22
2023-03-16T03:52:40.431Z,101167.06
2023-03-16T03:55:45.224Z,101160.34
2023-03-16T03:58:50.625Z,101164.84
2023-03-16T04:02:14.887Z,101166.53
2023-03-16T04:05:28.240Z,101162.06
2023-03-16T04:08:32.350Z,101162.81
2023-03-16T04:11:36.439Z,101159.66
2023-03-16T04:14:41.868Z,101162.00
2023-03-16T04:17:46.627Z,101161.56
2023-03-16T04:20:53.942Z,101163.13
2023-03-16T04:24:00.110Z,101159.09
2023-03-16T04:27:10.327Z,101148.44
2023-03-16T04:30:15.278Z,101135.59
2023-03-16T04:33:24.787Z,101129.13
2023-03-16T04:36:29.556Z,101147.66
2023-03-16T04:39:33.553Z,101141.47
2023-03-16T04:42:37.541Z,101118.13
2023-03-16T04:45:42.767Z,101122.03
2023-03-16T04:48:46.884Z,101122.16
2023-03-16T04:51:51.175Z,101134.38
2023-03-16T04:55:00.044Z,101138.31
2023-03-16T04:58:04.223Z,101129.50
2023-03-16T05:01:11.993Z,101124.50
2023-03-16T05:04:19.438Z,101137.31
2023-03-16T05:07:25.409Z,101132.03
2023-03-16T05:10:32.309Z,101135.78
2023-03-16T05:13:36.373Z,101137.28
2023-03-16T05:16:42.822Z,101125.53
2023-03-16T05:19:46.531Z,101122.03
2023-03-16T05:22:52.649Z,101126.94
2023-03-16T05:26:01.880Z,101134.81
2023-03-16T05:29:08.535Z,101133.13
2023-03-16T05:32:13.547Z,101133.63
2023-03-16T05:35:18.582Z,101140.50
2023-03-16T05:38:23.916Z,101137.09
2023-03-16T05:41:28.002Z,101131.50
2023-03-16T05:44:55.122Z,101130.69
2023-03-16T05:48:19.051Z,101138.81
2023-03-16T05:51:28.971Z,101147.63
2023-03-16T05:54:33.330Z,101140.75
2023-03-16T05:57:37.904Z,101145.31
2023-03-16T06:00:43.144Z,101136.94
2023-03-16T06:04:00.377Z,101144.72
2023-03-16T06:07:06.360Z,101132.97
2023-03-16T06:10:12.819Z,101144.69
2023-03-16T06:13:17.729Z,101142.66
2023-03-16T06:16:22.192Z,101157.88
2023-03-16T06:19:27.006Z,101154.69
2023-03-16T06:22:35.999Z,101161.81
2023-03-16T06:25:40.887Z,101167.41
2023-03-16T06:28:46.706Z,101175.13
2023-03-16T06:31:53.341Z,101166.03
2023-03-16T06:35:00.372Z,101176.72
2023-03-16T06:38:06.491Z,101176.34
2023-03-16T06:41:29.220Z,101180.06
2023-03-16T06:44:37.085Z,101196.50
2023-03-16T06:47:45.914Z,101189.25
2023-03-16T06:50:50.134Z,101195.75
2023-03-16T06:53:59.408Z,101195.09
2023-03-16T06:57:04.205Z,101194.84
2023-03-16T07:00:09.763Z,101197.25
2023-03-16T07:03:13.747Z,101192.72
2023-03-16T07:06:23.838Z,101191.44
2023-03-16T07:09:27.860Z,101187.22
2023-03-16T07:12:32.340Z,101186.81
2023-03-16T07:15:36.462Z,101183.53
2023-03-16T07:18:45.136Z,101187.91
2023-03-16T07:21:52.498Z,101178.16
2023-03-16T07:24:58.622Z,101186.13
2023-03-16T07:28:05.729Z,101193.13
2023-03-16T07:31:15.702Z,101195.28
2023-03-16T07:34:19.493Z,101193.25
2023-03-16T07:37:27.904Z,101194.44
2023-03-16T07:40:35.611Z,101194.94
2023-03-16T07:43:47.433Z,101197.66
2023-03-16T07:46:52.461Z,101193.09
2023-03-16T07:50:02.171Z,101194.47
2023-03-16T07:53:07.605Z,101197.81
2023-03-16T07:56:15.334Z,101202.28
2023-03-16T07:59:22.409Z,101191.66
2023-03-16T08:02:26.575Z,101201.03
2023-03-16T08:05:33.324Z,101198.41
2023-03-16T08:08:43.780Z,101202.97
2023-03-16T08:11:55.130Z,101205.78
2023-03-16T08:14:59.272Z,101202.84
2023-03-16T08:18:08.200Z,101201.41
2023-03-16T08:21:12.354Z,101196.06
2023-03-16T08:24:15.922Z,101202.91
2023-03-16T08:27:21.489Z,101202.03
2023-03-16T08:30:32.064Z,101194.88
2023-03-16T08:33:56.935Z,101197.84
2023-03-16T08:37:02.958Z,101193.56
2023-03-16T08:40:11.461Z,101196.75
2023-03-16T08:43:17.953Z,101197.09
2023-03-16T08:46:22.728Z,101202.63
2023-03-16T08:49:33.428Z,101196.22
2023-03-16T08:52:52.161Z,101207.09
2023-03-16T08:56:05.558Z,101203.06
2023-03-16T08:59:23.267Z,101200.16
2023-03-16T09:02:32.863Z,101196.75
2023-03-16T09:05:37.003Z,101202.81
2023-03-16T09:08:41.639Z,101195.69
2023-03-16T09:11:46.007Z,101194.31
2023-03-16T09:14:50.430Z,101196.31
2023-03-16T09:17:55.276Z,101193.63
2023-03-16T09:21:00.167Z,101202.84
2023-03-16T09:24:04.804Z,101195.47
2023-03-16T09:27:17.593Z,101206.28
2023-03-16T09:30:23.207Z,101203.22
2023-03-16T09:33:33.141Z,101201.78
2023-03-16T09:36:37.266Z,101204.88
2023-03-16T09:39:41.490Z,101213.69
2023-03-16T09:42:53.068Z,101206.41
2023-03-16T09:46:03.125Z,101209.84
2023-03-16T09:49:07.181Z,101204.94
2023-03-16T09:52:21.762Z,101210.19
2023-03-16T09:55:31.888Z,101220.94
2023-03-16T09:58:35.978Z,101223.53
2023-03-16T10:01:59.256Z,101219.78
2023-03-16T10:05:10.413Z,101210.50
2023-03-16T10:08:17.644Z,101216.22
2023-03-16T10:11:33.912Z,101210.78
2023-03-16T10:14:46.632Z,101210.88
2023-03-16T10:18:03.962Z,101219.16
2023-03-16T10:21:14.078Z,101213.75
2023-03-16T10:24:28.063Z,101211.09
2023-03-16T10:27:39.236Z,101206.16
2023-03-16T10:30:43.983Z,101203.16
2023-03-16T10:33:49.375Z,101201.38
2023-03-16T10:36:55.142Z,101200.38
2023-03-16T10:40:01.495Z,101189.78
2023-03-16T10:43:07.035Z,101197.16
2023-03-16T10:46:14.899Z,101198.88
2023-03-16T10:49:23.051Z,101190.59
2023-03-16T10:52:35.440Z,101198.03
2023-03-16T10:55:44.505Z,101191.19
2023-03-16T10:58:48.489Z,101192.19
2023-03-16T11:01:54.908Z,101203.34
2023-03-16T11:04:59.353Z,101196.19
2023-03-16T11:08:03.389Z,101198.69
2023-03-16T11:11:14.106Z,101202.56
2023-03-16T11:14:21.146Z,101205.81
2023-03-16T11:17:45.275Z,101201.25
2023-03-16T11:20:57.944Z,101194.03
2023-03-16T11:24:04.623Z,101198.25
2023-03-16T11:27:22.212Z,101198.72
2023-03-16T11:30:37.321Z,101196.59
2023-03-16T11:33:41.665Z,101198.53
2023-03-16T11:36:58.802Z,101208.34
2023-03-16T11:40:03.085Z,101198.72
2023-03-16T11:43:27.997Z,101212.47
2023-03-16T11:46:37.759Z,101208.50
2023-03-16T11:50:02.328Z,101214.53
2023-03-16T11:53:26.717Z,101233.63
2023-03-16T11:56:36.265Z,101238.53
2023-03-16T12:00:00.660Z,101232.31
2023-03-16T12:03:23.696Z,101235.19
2023-03-16T12:06:36.557Z,101218.78
2023-03-16T12:09:52.736Z,101220.09
2023-03-16T12:13:15.412Z,101222.06
2023-03-16T12:16:20.634Z,101221.66
2023-03-16T12:19:47.759Z,101222.84
2023-03-16T12:22:53.446Z,101216.75
2023-03-16T12:26:00.738Z,101210.63
2023-03-16T12:29:09.400Z,101203.41
2023-03-16T12:32:19.746Z,101210.41
2023-03-16T12:35:35.026Z,101216.56
2023-03-16T12:38:39.194Z,101220.34
2023-03-16T12:42:02.924Z,101224.75
2023-03-16T12:45:13.302Z,101219.94
2023-03-16T12:48:28.965Z,101209.13
2023-03-16T12:51:43.477Z,101217.41
2023-03-16T12:54:54.459Z,101226.00
2023-03-16T12:58:03.458Z,101232.97
2023-03-16T13:01:10.404Z,101234.75
2023-03-16T13:04:14.063Z,101219.16
2023-03-16T13:07:20.101Z,101224.28
2023-03-16T13:10:23.857Z,101231.38
2023-03-16T13:13:28.663Z,101227.91
2023-03-16T13:16:38.271Z,101226.47
2023-03-16T13:19:45.722Z,101221.66
2023-03-16T13:22:52.093Z,101224.63
2023-03-16T13:26:04.860Z,101212.88
2023-03-16T13:29:23.910Z,101217.81
2023-03-16T13:32:31.694Z,101228.59
2023-03-16T13:35:40.101Z,101225.72
2023-03-16T13:38:45.543Z,101226.59
2023-03-16T13:42:00.549Z,101216.47
2023-03-16T13:45:20.728Z,101214.75
2023-03-16T13:48:24.957Z,101222.25
2023-03-16T13:51:31.772Z,101218.16
2023-03-16T13:54:38.137Z,101209.38
2023-03-16T13:57:43.014Z,101216.47
2023-03-16T14:00:47.942Z,101221.19
2023-03-16T14:03:51.978Z,101217.03
2023-03-16T14:06:57.723Z,101216.31
2023-03-16T14:10:01.733Z,101217.38
2023-03-16T14:13:26.382Z,101227.19
2023-03-16T14:16:32.733Z,101217.00
2023-03-16T14:19:43.242Z,101225.09
2023-03-16T14:22:48.406Z,101226.34
2023-03-16T14:25:54.368Z,101224.47
2023-03-16T14:29:19.225Z,101225.84
2023-03-16T14:32:29.414Z,101225.47
2023-03-16T14:35:34.680Z,101225.25
2023-03-16T14:38:39.502Z,101229.97
2023-03-16T14:41:44.420Z,101226.63
2023-03-16T14:44:50.500Z,101228.53
2023-03-16T14:47:54.690Z,101221.13
2023-03-16T14:50:59.956Z,101221.97
2023-03-16T14:54:04.029Z,101224.66
2023-03-16T14:57:08.058Z,101216.44
2023-03-16T15:00:13.539Z,101221.22
2023-03-16T15:03:18.539Z,101217.13
2023-03-16T15:06:22.568Z,101219.91
2023-03-16T15:09:56.093Z,101222.34
2023-03-16T15:13:13.890Z,101211.41
2023-03-16T15:16:21.067Z,101212.00
2023-03-16T15:19:27.814Z,101208.66
2023-03-16T15:22:35.185Z,101212.06
2023-03-16T15:25:40.830Z,101210.16
2023-03-16T15:28:44.689Z,101213.88
2023-03-16T15:31:48.409Z,101209.22
2023-03-16T15:34:52.574Z,101213.59
2023-03-16T15:37:57.205Z,101209.75
2023-03-16T15:41:01.902Z,101210.38
2023-03-16T15:44:15.600Z,101206.59
2023-03-16T15:47:19.633Z,101212.13
2023-03-16T15:50:25.614Z,101212.88
2023-03-16T15:53:35.364Z,101202.50
2023-03-16T15:56:53.706Z,101213.63
2023-03-16T15:59:58.878Z,101205.88
2023-03-16T16:03:03.826Z,101213.91
2023-03-16T16:06:11.261Z,101219.78
2023-03-16T16:09:15.774Z,101221.75
2023-03-16T16:12:21.230Z,101220.91
2023-03-16T16:15:36.321Z,101221.75
2023-03-16T16:18:40.613Z,101227.00
2023-03-16T16:21:44.965Z,101227.59
2023-03-16T16:24:49.550Z,101219.38
2023-03-16T16:27:53.612Z,101219.25
2023-03-16T16:30:58.470Z,101218.19
2023-03-16T16:34:02.106Z,101223.06
2023-03-16T16:37:05.806Z,101220.41
2023-03-16T16:40:11.351Z,101210.19
2023-03-16T16:43:34.756Z,101222.66
2023-03-16T16:46:41.581Z,101214.66
2023-03-16T16:49:45.529Z,101215.53
2023-03-16T16:52:50.152Z,101213.84
2023-03-16T16:55:54.678Z,101216.56
2023-03-16T16:58:59.323Z,101214.66
2023-03-16T17:02:04.092Z,101213.91
2023-03-16T17:05:09.157Z,101208.41
2023-03-16T17:08:13.333Z,101214.44
2023-03-16T17:11:20.101Z,101206.00
2023-03-16T17:14:29.324Z,101200.16
2023-03-16T17:17:33.819Z,101191.72
2023-03-16T17:20:37.901Z,101195.03
2023-03-16T17:23:41.959Z,101192.38
2023-03-16T17:26:48.655Z,101185.97
2023-03-16T17:29:53.346Z,101180.63
2023-03-16T17:33:13.242Z,101190.47
2023-03-16T17:36:17.471Z,101191.13
2023-03-16T17:39:23.377Z,101180.94
2023-03-16T17:42:28.036Z,101192.63
2023-03-16T17:45:32.721Z,101180.75
2023-03-16T17:48:36.979Z,101181.34
2023-03-16T17:51:41.136Z,101182.66
2023-03-16T17:54:45.635Z,101180.94
2023-03-16T17:57:50.628Z,101185.69
2023-03-16T18:00:57.621Z,101185.66
2023-03-16T18:04:02.340Z,101176.53
2023-03-16T18:07:06.467Z,101174.75
2023-03-16T18:10:15.506Z,101172.38
2023-03-16T18:13:27.766Z,101170.16
2023-03-16T18:16:32.290Z,101178.09
2023-03-16T18:19:37.208Z,101175.88
2023-03-16T18:22:41.207Z,101168.78
2023-03-16T18:25:46.255Z,101161.84
2023-03-16T18:28:51.319Z,101164.72
2023-03-16T18:31:57.181Z,101164.56
2023-03-16T18:35:03.825Z,101164.75
2023-03-16T18:38:19.505Z,101162.09
2023-03-16T18:41:31.312Z,101167.16
2023-03-16T18:44:34.910Z,101164.41
2023-03-16T18:47:40.409Z,101175.41
2023-03-16T18:50:44.609Z,101165.25
2023-03-16T18:53:49.342Z,101164.38
2023-03-16T18:56:55.692Z,101165.72
2023-03-16T19:00:01.012Z,101157.56
2023-03-16T19:03:17.398Z,101164.72
2023-03-16T19:06:32.107Z,101157.72
2023-03-16T19:09:39.219Z,101166.22
2023-03-16T19:12:45.972Z,101170.09
2023-03-16T19:15:53.803Z,101149.50
2023-03-16T19:18:57.528Z,101149.38
2023-03-16T19:22:13.238Z,101154.78
2023-03-16T19:25:18.944Z,101152.31
2023-03-16T19:28:26.167Z,101157.56
2023-03-16T19:31:32.164Z,101153.63
2023-03-16T19:34:36.517Z,101152.75
2023-03-16T19:37:40.058Z,101149.69
2023-03-16T19:40:43.885Z,101146.94
2023-03-16T19:43:47.852Z,101147.59
2023-03-16T19:46:52.794Z,101149.69
2023-03-16T19:49:56.398Z,101152.03
2023-03-16T19:53:01.020Z,101155.97
2023-03-16T19:56:05.259Z,101140.66
2023-03-16T19:59:10.974Z,101147.00
2023-03-16T20:02:35.281Z,101144.97
2023-03-16T20:05:40.632Z,101144.03
2023-03-16T20:08:45.132Z,101143.34
2023-03-16T20:11:49.501Z,101142.63
2023-03-16T20:14:54.024Z,101144.09
2023-03-16T20:17:59.386Z,101143.69
2023-03-16T20:21:03.820Z,101132.78
2023-03-16T20:24:17.864Z,101130.31
2023-03-16T20:27:23.664Z,101121.59
2023-03-16T20:30:27.671Z,101123.69
2023-03-16T20:33:32.735Z,101125.38
2023-03-16T20:36:36.777Z,101126.28
2023-03-16T20:39:40.826Z,101128.03
2023-03-16T20:42:46.732Z,101120.78
2023-03-16T20:45:51.672Z,101126.88
2023-03-16T20:48:56.569Z,101121.44
2023-03-16T20:52:01.821Z,101130.47
2023-03-16T20:55:18.169Z,101117.56
2023-03-16T20:58:25.324Z,101123.97
2023-03-16T21:01:29.330Z,101126.09
2023-03-16T21:04:33.656Z,101121.72
2023-03-16T21:07:37.942Z,101118.84
2023-03-16T21:10:42.849Z,101119.19
2023-03-16T21:13:47.367Z,101125.09
2023-03-16T21:16:52.287Z,101119.03
2023-03-16T21:19:56.424Z,101122.28
2023-03-16T21:23:00.643Z,101113.97
2023-03-16T21:26:04.789Z,101118.97
2023-03-16T21:29:14.391Z,101117.34
2023-03-16T21:32:22.792Z,101113.34
2023-03-16T21:35:33.022Z,101113.41
2023-03-16T21:38:37.640Z,101111.56
2023-03-16T21:41:41.632Z,101107.19
2023-03-16T21:44:46.541Z,101099.81
2023-03-16T21:47:51.175Z,101098.50
2023-03-16T21:50:55.251Z,101101.31
2023-03-16T21:53:59.764Z,101088.94
2023-03-16T21:57:06.780Z,101095.09
2023-03-16T22:00:17.682Z,101096.06
2023-03-16T22:03:29.580Z,101099.09
2023-03-16T22:06:37.333Z,101100.81
2023-03-16T22:09:41.827Z,101095.44
2023-03-16T22:12:45.794Z,101092.50
2023-03-16T22:15:50.654Z,101092.34
2023-03-16T22:18:57.194Z,101084.88
2023-03-16T22:22:01.703Z,101092.31
2023-03-16T22:25:13.964Z,101089.56
2023-03-16T22:28:17.692Z,101091.44
2023-03-16T22:31:22.597Z,101097.50
2023-03-16T22:34:29.781Z,101078.38
2023-03-16T22:37:33.810Z,101090.97
2023-03-16T22:40:38.354Z,101097.31
2023-03-16T22:43:43.800Z,101100.09
2023-03-16T22:46:49.661Z,101108.84
2023-03-16T22:49:56.410Z,101101.38
2023-03-16T22:53:02.105Z,101108.78
2023-03-16T22:56:07.053Z,101101.75
2023-03-16T22:59:13.329Z,101085.41
2023-03-16T23:02:17.416Z,101079.41
2023-03-16T23:05:25.924Z,101082.75
2023-03-16T23:08:29.574Z,101095.03
2023-03-16T23:11:34.730Z,101088.69
2023-03-16T23:15:15.827Z,101094.06
2023-03-16T23:19:24.117Z,101093.19
2023-03-16T23:23:08.680Z,101084.50
2023-03-16T23:26:17.326Z,101097.41
2023-03-16T23:29:22.495Z,101101.22
2023-03-16T23:32:28.953Z,101101.84
2023-03-16T23:35:32.893Z,101112.34
2023-03-16T23:38:36.498Z,101109.47
2023-03-16T23:41:42.632Z,101113.47
2023-03-16T23:44:46.198Z,101106.56
2023-03-16T23:47:53.364Z,101115.66
2023-03-16T23:50:57.594Z,101115.00
2023-03-16T23:54:01.689Z,101115.59
2023-03-16T23:57:05.362Z,101110.16
